Canton, Mississippi
Current Conditions -  °F | °C
As of 7:54 PM on Sunday 25 Jan 2015 (Local Time) from KJAN Reporting Station
Scattered Clouds Scattered Clouds  
Wind Chill: 58°   Ceiling: Unl
Heat Index: 58°   Visibility: 10mi
Dew Point: 35°   Wind: 10mph
Humidity: 42%   Direction: 320°NW
Pressure: 29.89"   Gusts: 24mph
Location:  32.61°N, 90.03°W
Report Text: KJAN 260154Z 32009G21KT 10SM SCT100 14/02 A2989 RMK AO2 SLP120 T01440017
Loading
Personal Weather Stations






























Interactive Weather Map New forecast layout! Learn more

10-Day Weather Forecast

Advertisements
Track Severe Weather on mobile